createdAt,value
2019-05-19T00:01:34.369Z,28.77
2019-05-19T00:04:18.110Z,31.42
2019-05-19T00:07:03.460Z,31.53
2019-05-19T00:09:48.203Z,34.40
2019-05-19T00:12:32.875Z,35.27
2019-05-19T00:15:17.506Z,30.83
2019-05-19T00:18:01.768Z,32.67
2019-05-19T00:20:46.682Z,29.77
2019-05-19T00:23:31.031Z,32.50
2019-05-19T00:26:14.583Z,34.70
2019-05-19T00:28:58.589Z,34.07
2019-05-19T00:31:42.241Z,36.35
2019-05-19T00:34:26.954Z,34.97
2019-05-19T00:37:10.833Z,31.33
2019-05-19T00:39:55.394Z,32.77
2019-05-19T00:42:40.739Z,32.03
2019-05-19T00:45:24.593Z,34.67
2019-05-19T00:48:09.778Z,39.07
2019-05-19T00:50:56.543Z,35.40
2019-05-19T00:53:40.690Z,39.67
2019-05-19T00:56:25.147Z,42.23
2019-05-19T00:59:09.732Z,39.50
2019-05-19T01:01:53.750Z,40.47
2019-05-19T01:04:39.915Z,39.70
2019-05-19T01:07:23.693Z,41.55
2019-05-19T01:10:07.769Z,43.37
2019-05-19T01:12:40.091Z,40.50
2019-05-19T01:15:24.461Z,40.57
2019-05-19T01:18:09.905Z,45.03
2019-05-19T01:20:53.742Z,47.77
2019-05-19T01:23:38.242Z,45.70
2019-05-19T01:26:23.062Z,45.67
2019-05-19T01:29:08.846Z,48.73
2019-05-19T01:31:52.441Z,48.07
2019-05-19T01:34:36.574Z,45.58
2019-05-19T01:37:21.067Z,47.33
2019-05-19T01:40:10.258Z,50.13
2019-05-19T01:42:56.060Z,51.13
2019-05-19T01:45:40.278Z,51.60
2019-05-19T01:48:12.615Z,54.33
2019-05-19T01:50:56.713Z,55.33
2019-05-19T01:53:40.791Z,54.03
2019-05-19T01:56:25.333Z,55.53
2019-05-19T01:59:09.094Z,51.53
2019-05-19T02:01:53.843Z,54.73
2019-05-19T02:04:38.368Z,54.63
2019-05-19T02:07:24.889Z,57.47
2019-05-19T02:10:08.425Z,55.77
2019-05-19T02:12:52.336Z,56.43
2019-05-19T02:15:37.227Z,60.20
2019-05-19T02:18:21.800Z,59.25
2019-05-19T02:21:05.706Z,58.23
2019-05-19T02:23:50.391Z,56.93
2019-05-19T02:26:34.007Z,57.37
2019-05-19T02:29:18.020Z,93.17
2019-05-19T02:32:03.493Z,59.83
2019-05-19T02:34:47.635Z,56.40
2019-05-19T02:37:31.905Z,55.47
2019-05-19T02:40:16.773Z,54.27
2019-05-19T02:43:01.067Z,58.08
2019-05-19T02:45:45.877Z,51.50
2019-05-19T02:48:29.866Z,49.77
2019-05-19T02:51:15.376Z,56.10
2019-05-19T02:53:59.161Z,64.83
2019-05-19T02:56:43.459Z,57.07
2019-05-19T02:59:31.972Z,93.93
2019-05-19T03:02:28.473Z,80.27
2019-05-19T03:05:14.356Z,80.03
2019-05-19T03:07:57.950Z,82.05
2019-05-19T03:10:41.542Z,81.70
2019-05-19T03:13:25.670Z,81.17
2019-05-19T03:16:10.073Z,82.40
2019-05-19T03:18:54.862Z,84.70
2019-05-19T03:21:39.114Z,61.40
2019-05-19T03:24:23.596Z,101.60
2019-05-19T03:27:07.722Z,73.33
2019-05-19T03:29:56.552Z,57.23
2019-05-19T03:32:47.698Z,87.03
2019-05-19T03:35:31.537Z,76.00
2019-05-19T03:38:18.699Z,61.83
2019-05-19T03:41:03.876Z,85.87
2019-05-19T03:43:48.666Z,54.70
2019-05-19T03:46:32.930Z,59.43
2019-05-19T03:49:18.991Z,55.37
2019-05-19T03:52:02.844Z,94.45
2019-05-19T03:54:47.509Z,81.37
2019-05-19T03:57:31.315Z,51.83
2019-05-19T04:00:18.162Z,78.50
2019-05-19T04:03:02.689Z,49.70
2019-05-19T04:05:47.538Z,79.30
2019-05-19T04:08:32.005Z,80.05
2019-05-19T04:11:17.111Z,57.10
2019-05-19T04:14:00.718Z,62.83
2019-05-19T04:16:33.056Z,46.77
2019-05-19T04:19:18.776Z,43.03
2019-05-19T04:22:02.385Z,55.50
2019-05-19T04:24:46.655Z,48.70
2019-05-19T04:27:31.159Z,48.63
2019-05-19T04:30:15.333Z,44.10
2019-05-19T04:32:59.820Z,42.60
2019-05-19T04:35:43.972Z,49.70
2019-05-19T04:38:27.677Z,43.02
2019-05-19T04:41:12.736Z,81.60
2019-05-19T04:43:56.965Z,93.77
2019-05-19T04:46:41.008Z,45.50
2019-05-19T04:49:25.999Z,42.83
2019-05-19T04:52:11.196Z,37.03
2019-05-19T04:54:55.410Z,83.55
2019-05-19T04:57:39.922Z,58.95
2019-05-19T05:00:24.669Z,46.80
2019-05-19T05:03:09.063Z,42.97
2019-05-19T05:05:53.233Z,47.33
2019-05-19T05:08:36.988Z,39.07
2019-05-19T05:11:21.563Z,35.47
2019-05-19T05:14:06.067Z,44.42
2019-05-19T05:16:52.546Z,35.27
2019-05-19T05:19:36.555Z,57.97
2019-05-19T05:22:27.201Z,65.47
2019-05-19T05:25:11.018Z,42.73
2019-05-19T05:27:55.551Z,34.63
2019-05-19T05:30:39.183Z,32.83
2019-05-19T05:33:23.341Z,38.60
2019-05-19T05:36:12.179Z,31.67
2019-05-19T05:38:55.872Z,27.57
2019-05-19T05:41:40.517Z,29.30
2019-05-19T05:44:24.231Z,26.60
2019-05-19T05:47:09.004Z,52.73
2019-05-19T05:49:52.697Z,42.97
2019-05-19T05:52:38.753Z,42.73
2019-05-19T05:55:22.600Z,26.83
2019-05-19T05:58:07.350Z,26.20
2019-05-19T06:00:51.826Z,31.03
2019-05-19T06:03:36.248Z,29.63
2019-05-19T06:06:20.705Z,48.80
2019-05-19T06:09:05.737Z,32.07
2019-05-19T06:11:51.698Z,26.97
2019-05-19T06:14:35.588Z,46.30
2019-05-19T06:17:20.783Z,26.00
2019-05-19T06:20:04.970Z,22.48
2019-05-19T06:22:37.474Z,28.07
2019-05-19T06:25:21.878Z,23.07
2019-05-19T06:28:06.151Z,27.70
2019-05-19T06:30:51.000Z,27.90
2019-05-19T06:33:35.148Z,27.73
2019-05-19T06:36:19.960Z,32.27
2019-05-19T06:39:06.737Z,24.43
2019-05-19T06:41:39.108Z,24.93
2019-05-19T06:44:24.035Z,26.23
2019-05-19T06:47:10.292Z,23.30
2019-05-19T06:49:54.405Z,24.00
2019-05-19T06:52:38.654Z,22.83
2019-05-19T06:55:23.027Z,26.97
2019-05-19T06:58:06.819Z,27.33
2019-05-19T07:00:51.414Z,25.17
2019-05-19T07:03:38.345Z,26.57
2019-05-19T07:06:22.848Z,27.80
2019-05-19T07:09:07.227Z,25.73
2019-05-19T07:11:51.605Z,24.30
2019-05-19T07:14:37.477Z,24.82
2019-05-19T07:17:23.282Z,26.90
2019-05-19T07:20:07.080Z,27.70
2019-05-19T07:22:50.804Z,30.43
2019-05-19T07:25:34.791Z,23.83
2019-05-19T07:28:19.516Z,23.63
2019-05-19T07:31:03.315Z,22.77
2019-05-19T07:33:46.937Z,25.07
2019-05-19T07:36:31.171Z,25.67
2019-05-19T07:39:15.456Z,26.27
2019-05-19T07:41:59.896Z,26.12
2019-05-19T07:44:45.520Z,24.53
2019-05-19T07:47:30.412Z,25.93
2019-05-19T07:50:14.442Z,25.73
2019-05-19T07:52:59.722Z,25.17
2019-05-19T07:55:44.520Z,28.03
2019-05-19T07:58:28.675Z,25.53
2019-05-19T08:01:01.847Z,23.93
2019-05-19T08:03:46.413Z,26.48
2019-05-19T08:06:32.654Z,24.73
2019-05-19T08:09:18.580Z,26.87
2019-05-19T08:12:03.419Z,26.23
2019-05-19T08:14:47.175Z,27.32
2019-05-19T08:17:31.530Z,23.57
2019-05-19T08:20:15.659Z,27.00
2019-05-19T08:22:59.590Z,24.03
2019-05-19T08:25:44.393Z,26.23
2019-05-19T08:28:29.533Z,27.37
2019-05-19T08:31:15.195Z,25.13
2019-05-19T08:33:47.333Z,24.90
2019-05-19T08:36:31.980Z,25.90
2019-05-19T08:39:16.156Z,24.73
2019-05-19T08:42:00.990Z,25.47
2019-05-19T08:44:45.106Z,23.23
2019-05-19T08:47:18.376Z,22.53
2019-05-19T08:50:02.265Z,23.43
2019-05-19T08:52:46.255Z,24.13
2019-05-19T08:55:29.976Z,22.97
2019-05-19T08:58:02.495Z,21.68
2019-05-19T09:00:46.401Z,21.40
2019-05-19T09:03:30.297Z,22.57
2019-05-19T09:06:15.025Z,21.12
2019-05-19T09:08:59.037Z,19.77
2019-05-19T09:11:43.910Z,21.63
2019-05-19T09:14:27.929Z,19.77
2019-05-19T09:17:12.007Z,19.83
2019-05-19T09:19:55.923Z,20.77
2019-05-19T09:22:40.455Z,20.23
2019-05-19T09:25:24.564Z,20.97
2019-05-19T09:28:08.708Z,21.60
2019-05-19T09:30:53.255Z,21.10
2019-05-19T09:33:37.151Z,20.37
2019-05-19T09:36:09.570Z,21.20
2019-05-19T09:39:07.071Z,20.03
2019-05-19T09:41:51.274Z,19.53
2019-05-19T09:47:19.578Z,18.97
2019-05-19T09:49:52.309Z,18.87
2019-05-19T09:52:36.283Z,17.13
2019-05-19T09:55:20.422Z,17.15
2019-05-19T09:58:04.513Z,18.67
2019-05-19T10:00:50.456Z,17.57
2019-05-19T10:03:35.158Z,16.37
2019-05-19T10:06:19.110Z,16.82
2019-05-19T10:09:07.464Z,15.60
2019-05-19T10:12:17.515Z,16.40
2019-05-19T10:15:01.792Z,16.43
2019-05-19T10:17:48.300Z,17.07
2019-05-19T10:20:32.187Z,14.67
2019-05-19T10:23:20.683Z,14.83
2019-05-19T10:26:04.685Z,14.60
2019-05-19T10:28:48.969Z,15.20
2019-05-19T10:31:33.228Z,15.53
2019-05-19T10:34:17.461Z,16.00
2019-05-19T10:37:02.358Z,14.23
2019-05-19T10:39:47.055Z,15.10
2019-05-19T10:42:31.213Z,15.87
2019-05-19T10:45:19.509Z,14.83
2019-05-19T10:48:07.425Z,14.53
2019-05-19T10:50:51.812Z,13.28
2019-05-19T10:53:37.002Z,13.70
2019-05-19T10:56:21.502Z,12.80
2019-05-19T10:59:06.026Z,13.80
2019-05-19T11:01:52.566Z,12.73
2019-05-19T11:04:37.220Z,11.37
2019-05-19T11:07:21.764Z,12.73
2019-05-19T11:10:05.929Z,13.67
2019-05-19T11:15:39.274Z,11.97
2019-05-19T11:18:23.789Z,12.17
2019-05-19T11:21:08.161Z,9.77
2019-05-19T11:23:52.505Z,11.00
2019-05-19T11:26:36.815Z,11.27
2019-05-19T11:32:09.628Z,10.40
2019-05-19T11:34:56.847Z,12.10
2019-05-19T11:37:40.514Z,12.10
2019-05-19T11:40:25.064Z,14.37
2019-05-19T11:43:09.786Z,13.67
2019-05-19T11:45:53.874Z,12.80
2019-05-19T11:48:38.137Z,12.00
2019-05-19T11:51:22.949Z,11.30
2019-05-19T11:54:07.655Z,11.73
2019-05-19T11:56:53.550Z,11.03
2019-05-19T11:59:38.368Z,12.53
2019-05-19T12:02:22.820Z,11.10
2019-05-19T12:05:07.660Z,12.33
2019-05-19T12:07:51.724Z,10.63
2019-05-19T12:10:35.434Z,14.23
2019-05-19T12:13:19.759Z,11.37
2019-05-19T12:16:04.830Z,10.35
2019-05-19T12:18:51.103Z,11.90
2019-05-19T12:21:35.046Z,11.38
2019-05-19T12:24:19.591Z,10.77
2019-05-19T12:27:03.901Z,10.73
2019-05-19T12:29:50.524Z,10.53
2019-05-19T12:32:34.388Z,9.87
2019-05-19T12:35:06.921Z,9.73
2019-05-19T12:37:51.174Z,9.77
2019-05-19T12:40:35.364Z,10.15
2019-05-19T12:43:19.324Z,11.57
2019-05-19T12:46:03.446Z,10.10
2019-05-19T12:48:47.912Z,10.23
2019-05-19T12:51:32.916Z,10.35
2019-05-19T12:54:16.660Z,9.23
2019-05-19T12:57:00.994Z,9.93
2019-05-19T12:59:45.372Z,10.63
2019-05-19T13:02:28.979Z,10.03
2019-05-19T13:05:12.949Z,10.33
2019-05-19T13:07:45.890Z,9.83
2019-05-19T13:10:30.591Z,11.67
2019-05-19T13:13:02.985Z,9.47
2019-05-19T13:15:46.868Z,9.17
2019-05-19T13:18:31.796Z,9.57
2019-05-19T13:21:16.344Z,9.77
2019-05-19T13:24:00.303Z,11.03
2019-05-19T13:26:56.175Z,9.73
2019-05-19T13:29:32.398Z,10.65
2019-05-19T13:35:01.876Z,10.20
2019-05-19T13:37:51.446Z,9.73
2019-05-19T13:40:35.495Z,8.30
2019-05-19T13:43:20.090Z,8.20
2019-05-19T13:46:04.296Z,8.68
2019-05-19T13:48:48.172Z,10.53
2019-05-19T13:51:20.732Z,9.17
2019-05-19T13:54:05.124Z,8.63
2019-05-19T13:56:49.458Z,8.00
2019-05-19T13:59:34.282Z,9.43
2019-05-19T14:02:18.382Z,9.17
2019-05-19T14:05:04.808Z,9.60
2019-05-19T14:07:49.351Z,10.15
2019-05-19T14:10:33.431Z,9.43
2019-05-19T14:13:05.751Z,10.63
2019-05-19T14:15:49.847Z,9.67
2019-05-19T14:18:34.218Z,9.30
2019-05-19T14:21:18.786Z,8.80
2019-05-19T14:24:03.881Z,11.53
2019-05-19T14:26:47.758Z,9.10
2019-05-19T14:29:33.726Z,10.33
2019-05-19T14:32:17.935Z,9.37
2019-05-19T14:35:05.032Z,8.63
2019-05-19T14:37:49.196Z,9.03
2019-05-19T14:40:21.608Z,8.33
2019-05-19T14:43:06.112Z,8.93
2019-05-19T14:45:50.858Z,8.97
2019-05-19T14:48:34.964Z,9.13
2019-05-19T14:51:19.626Z,9.05
2019-05-19T14:54:04.281Z,8.63
2019-05-19T14:56:49.016Z,9.37
2019-05-19T14:59:33.570Z,9.80
2019-05-19T15:02:19.965Z,9.00
2019-05-19T15:04:51.738Z,8.87
2019-05-19T15:07:35.698Z,9.33
2019-05-19T15:10:22.091Z,9.33
2019-05-19T15:13:06.586Z,10.00
2019-05-19T15:15:50.331Z,10.33
2019-05-19T15:18:34.501Z,10.00
2019-05-19T15:21:18.884Z,11.40
2019-05-19T15:24:03.109Z,10.38
2019-05-19T15:26:48.508Z,10.27
2019-05-19T15:29:33.258Z,9.85
2019-05-19T15:32:17.424Z,10.87
2019-05-19T15:35:01.621Z,10.53
2019-05-19T15:37:47.335Z,10.37
2019-05-19T15:40:32.710Z,9.73
2019-05-19T15:43:16.887Z,10.23
2019-05-19T15:45:49.464Z,9.87
2019-05-19T15:48:33.479Z,10.57
2019-05-19T15:51:28.520Z,11.03
2019-05-19T15:54:05.751Z,10.35
2019-05-19T15:56:49.679Z,10.40
2019-05-19T15:59:33.769Z,10.75
2019-05-19T16:02:18.986Z,9.70
2019-05-19T16:05:02.689Z,10.20
2019-05-19T16:07:46.854Z,10.55
2019-05-19T16:10:31.031Z,10.07
2019-05-19T16:13:15.286Z,10.53
2019-05-19T16:15:47.849Z,10.23
2019-05-19T16:18:31.575Z,10.63
2019-05-19T16:21:15.732Z,10.50
2019-05-19T16:23:48.127Z,9.80
2019-05-19T16:26:31.835Z,12.07
2019-05-19T16:29:16.621Z,10.87
2019-05-19T16:31:48.948Z,11.68
2019-05-19T16:34:36.062Z,10.63
2019-05-19T16:37:20.146Z,11.13
2019-05-19T16:40:05.319Z,12.13
2019-05-19T16:42:50.256Z,11.90
2019-05-19T16:45:34.884Z,11.00
2019-05-19T16:48:19.164Z,12.15
2019-05-19T16:51:03.395Z,14.77
2019-05-19T16:53:49.409Z,10.80
2019-05-19T16:56:34.176Z,10.97
2019-05-19T16:59:18.183Z,10.87
2019-05-19T17:02:02.191Z,11.40
2019-05-19T17:04:46.437Z,10.85
2019-05-19T17:07:32.273Z,10.40
2019-05-19T17:10:16.412Z,12.53
2019-05-19T17:12:49.677Z,10.98
2019-05-19T17:15:33.595Z,10.43
2019-05-19T17:18:17.447Z,11.13
2019-05-19T17:21:01.341Z,11.80
2019-05-19T17:23:45.470Z,10.73
2019-05-19T17:26:29.973Z,10.83
2019-05-19T17:29:14.687Z,11.10
2019-05-19T17:32:05.954Z,10.97
2019-05-19T17:34:44.392Z,11.77
2019-05-19T17:37:30.992Z,11.88
2019-05-19T17:40:16.978Z,11.40
2019-05-19T17:43:00.817Z,11.33
2019-05-19T17:45:46.581Z,11.00
2019-05-19T17:48:30.685Z,10.33
2019-05-19T17:51:15.173Z,11.43
2019-05-19T17:53:59.286Z,12.00
2019-05-19T17:56:43.527Z,11.03
2019-05-19T17:59:27.596Z,11.20
2019-05-19T18:02:13.166Z,11.20
2019-05-19T18:04:57.857Z,12.40
2019-05-19T18:07:42.421Z,11.30
2019-05-19T18:10:26.229Z,10.43
2019-05-19T18:13:10.806Z,11.33
2019-05-19T18:15:54.931Z,10.50
2019-05-19T18:18:38.824Z,10.65
2019-05-19T18:21:22.804Z,11.60
2019-05-19T18:24:06.727Z,11.37
2019-05-19T18:26:50.648Z,11.13
2019-05-19T18:29:35.035Z,10.87
2019-05-19T18:32:19.571Z,11.13
2019-05-19T18:35:06.825Z,10.58
2019-05-19T18:37:51.007Z,11.40
2019-05-19T18:40:34.950Z,10.87
2019-05-19T18:43:18.930Z,12.17
2019-05-19T18:46:03.793Z,12.07
2019-05-19T18:48:48.002Z,12.37
2019-05-19T18:51:32.603Z,12.33
2019-05-19T18:54:17.015Z,13.30
2019-05-19T18:57:00.994Z,14.10
2019-05-19T18:59:47.747Z,14.27
2019-05-19T19:02:31.330Z,14.53
2019-05-19T19:05:15.862Z,14.10
2019-05-19T19:07:59.803Z,14.80
2019-05-19T19:10:49.659Z,15.20
2019-05-19T19:13:33.696Z,15.00
2019-05-19T19:16:17.490Z,16.73
2019-05-19T19:19:01.880Z,15.07
2019-05-19T19:21:45.849Z,18.90
2019-05-19T19:24:30.062Z,17.77
2019-05-19T19:27:14.613Z,17.20
2019-05-19T19:30:03.323Z,17.93
2019-05-19T19:32:46.156Z,17.50
2019-05-19T19:35:38.713Z,18.80
2019-05-19T19:38:16.281Z,17.80
2019-05-19T19:41:00.669Z,17.93
2019-05-19T19:43:45.004Z,18.80
2019-05-19T19:46:31.185Z,17.17
2019-05-19T19:49:14.951Z,16.83
2019-05-19T19:52:05.514Z,16.40
2019-05-19T19:54:49.327Z,18.40
2019-05-19T19:57:33.288Z,18.73
2019-05-19T20:00:23.618Z,18.00
2019-05-19T20:03:07.660Z,17.17
2019-05-19T20:05:52.373Z,18.13
2019-05-19T20:08:36.567Z,18.15
2019-05-19T20:11:20.884Z,16.37
2019-05-19T20:14:05.512Z,17.77
2019-05-19T20:16:49.932Z,16.30
2019-05-19T20:19:34.376Z,16.67
2019-05-19T20:22:18.564Z,15.20
2019-05-19T20:25:02.960Z,15.73
2019-05-19T20:27:48.852Z,17.23
2019-05-19T20:30:36.151Z,18.10
2019-05-19T20:33:18.814Z,17.00
2019-05-19T20:36:03.217Z,17.83
2019-05-19T20:38:46.752Z,18.00
2019-05-19T20:41:30.728Z,17.50
2019-05-19T20:44:14.645Z,18.10
2019-05-19T20:46:58.356Z,18.83
2019-05-19T20:49:43.216Z,17.77
2019-05-19T20:52:27.189Z,18.57
2019-05-19T20:55:11.258Z,18.37
2019-05-19T20:57:55.277Z,19.53
2019-05-19T21:00:50.037Z,18.50
2019-05-19T21:03:26.138Z,18.00
2019-05-19T21:06:10.429Z,19.27
2019-05-19T21:08:54.306Z,17.70
2019-05-19T21:11:38.914Z,20.87
2019-05-19T21:14:23.230Z,19.37
2019-05-19T21:17:09.148Z,19.57
2019-05-19T21:19:52.908Z,17.90
2019-05-19T21:22:39.017Z,17.75
2019-05-19T21:25:23.705Z,20.50
2019-05-19T21:28:08.193Z,20.72
2019-05-19T21:31:04.988Z,20.57
2019-05-19T21:33:38.526Z,19.17
2019-05-19T21:36:22.850Z,19.53
2019-05-19T21:39:07.002Z,19.80
2019-05-19T21:41:50.600Z,19.33
2019-05-19T21:44:34.150Z,22.73
2019-05-19T21:47:18.417Z,21.73
2019-05-19T21:50:02.639Z,21.47
2019-05-19T21:52:50.803Z,20.60
2019-05-19T21:55:34.379Z,20.47
2019-05-19T21:58:18.388Z,22.40
2019-05-19T22:01:03.795Z,20.17
2019-05-19T22:03:47.671Z,21.67
2019-05-19T22:06:35.026Z,21.40
2019-05-19T22:09:19.612Z,21.67
2019-05-19T22:12:03.497Z,21.87
2019-05-19T22:14:51.806Z,22.07
2019-05-19T22:17:35.403Z,21.67
2019-05-19T22:20:19.416Z,22.97
2019-05-19T22:23:04.290Z,21.53
2019-05-19T22:25:51.403Z,21.20
2019-05-19T22:28:35.710Z,21.03
2019-05-19T22:31:20.547Z,21.30
2019-05-19T22:34:05.288Z,21.23
2019-05-19T22:36:49.940Z,20.87
2019-05-19T22:39:33.969Z,23.27
2019-05-19T22:42:18.316Z,22.77
2019-05-19T22:45:02.962Z,25.00
2019-05-19T22:47:47.441Z,24.87
2019-05-19T22:50:35.982Z,21.87
2019-05-19T22:53:22.003Z,23.47
2019-05-19T22:56:06.169Z,20.60
2019-05-19T22:58:51.629Z,21.50
2019-05-19T23:01:35.507Z,22.03
2019-05-19T23:04:19.311Z,21.67
2019-05-19T23:07:03.289Z,20.87
2019-05-19T23:09:47.358Z,20.97
2019-05-19T23:12:31.952Z,22.67
2019-05-19T23:15:16.068Z,21.27
2019-05-19T23:18:00.545Z,24.53
2019-05-19T23:20:44.549Z,24.60
2019-05-19T23:23:28.751Z,23.13
2019-05-19T23:26:12.546Z,25.77
2019-05-19T23:28:44.920Z,24.13
2019-05-19T23:31:29.215Z,25.67
2019-05-19T23:34:15.668Z,24.47
2019-05-19T23:36:59.526Z,25.93
2019-05-19T23:39:43.571Z,26.80
2019-05-19T23:42:28.299Z,26.00
2019-05-19T23:45:13.240Z,24.77
2019-05-19T23:47:57.702Z,27.47
2019-05-19T23:50:43.321Z,29.32
2019-05-19T23:53:27.600Z,24.03
2019-05-19T23:56:12.091Z,26.33
2019-05-19T23:58:56.037Z,26.83
